AirNav   Everest Fuels
 
 992 users online  

CL35 Warner Springs Gliderport
Warner Springs, California, USA

GOING TO WARNER SPRINGS?


FAA INFORMATION EFFECTIVE 08 OCTOBER 2020

Location

FAA Identifier: CL35
Lat/Long: 33-17-04.2100N 116-40-10.7650W
33-17.070167N 116-40.179417W
33.2845028,-116.6696569
(estimated)
Elevation: 2880 ft. / 878 m (estimated)
Variation: 13E (1985)
From city: 2 miles E of WARNER SPRINGS, CA
Time zone: UTC -7 (UTC -8 during Standard Time)
Zip code: 92086

Gliderport Operations

Gliderport use: Private use. Permission required prior to landing
Activation date: 10/1984
Control tower: no
ARTCC: LOS ANGELES CENTER
FSS: SAN DIEGO FLIGHT SERVICE STATION
Attendance: 0900-1700
Wind indicator: yes
Segmented circle: yes
Landing fee: yes

Gliderport Communications

UNICOM: 122.8
WX AWOS-3P at L08 (18 nm E): 126.575 (760-767-3308)
WX ASOS at RNM (19 nm SW): PHONE 760-789-7699

Nearby radio navigation aids

VOR radial/distance  VOR name  Freq  Var
JLIr319/9.6JULIAN VORTAC114.0015E
TRMr218/32.8THERMAL VORTAC116.2013E
PSPr186/37.1PALM SPRINGS VORTAC115.5013E
OCNr071/37.6OCEANSIDE VORTAC115.3015E
HDFr125/(39.2)HOMELAND VOR113.4014E

Gliderport Services

Runway Information

Runway 8/26

Dimensions: 3500 x 70 ft. / 1067 x 21 m
Surface: asphalt
RUNWAY 8  RUNWAY 26
Latitude: 33-17.060333N33-17.080000N
Longitude: 116-40.522667W116-39.836167W
Elevation: 2873.0 ft.2914.0 ft.
Traffic pattern: leftleft
Obstructions: none200 ft. hill, 5200 ft. from runway

Gliderport Ownership and Management from official FAA records

Ownership: Privately-owned
Owner: WARNER SPRINGS RANCH RESORT, LLC
31930 HWY 79
WARNER SPRINGS, CA 92086
Phone 760-782-4200
SKY SAILING 31930 HWY 79.
Manager: BRET WILLAT
SKY SAILING 31930 HWY 79
WARNER SPRINGS, CA 92086
Phone 760-782-0404
LEASEE.

Gliderport Operational Statistics

Aircraft based on the field: 80
Single engine airplanes: 10
Gliders airplanes: 70
    

Additional Remarks

FOR CD CTC LOS ANGELES ARTCC AT 661-575-2079.

Instrument Procedures

There are no published instrument procedures at CL35.

Some nearby airports with instrument procedures:

L08 - Borrego Valley Airport (18 nm E)
KRNM - Ramona Airport (19 nm SW)
F70 - French Valley Airport (29 nm NW)
L18 - Fallbrook Community Airpark (29 nm W)
KSEE - Gillespie Field Airport (31 nm SW)
 
Loc | Ops | Rwys | IFR | FBO | Links
Com | Nav | Svcs | Stats | Notes
Area around CL35 (Warner Springs Gliderport)
 
Road maps at: MapQuest Bing Google
 
Aerial photo
WARNING: Photo may not be current or correct
Aerial photo of CL35 (Warner Springs Gliderport)
Photo by Steve Lupinacci
Photo taken 27-May-2008

Do you have a better or more recent aerial photo of Warner Springs Gliderport that you would like to share? If so, please send us your photo.

 
Sectional chart

 
Airport distance calculator
Flying to Warner Springs Gliderport? Find the distance to fly.

From to CL35

Sunrise and sunset
Times for 31-Oct-2020
 Local
(UTC-7)
 Zulu
(UTC)
Morning civil twilight06:4113:41
Sunrise07:0614:06
Sunset17:5400:54
Evening civil twilight18:2001:20

Current date and time
Zulu (UTC)  31-Oct-2020 20:31:27
Local (UTC-7)  31-Oct-2020 13:31:27
 
METAR
KL08 
18nm E 
312015Z AUTO 17005G11KT 10SM CLR 31/M08 A3002 RMK AO2
KRNM 
20nm SW 
311953Z 07011G17KT 10SM CLR 31/M04 A3002 RMK AO2 SLP154 T03111039
KF70 
29nm NW 
312015Z AUTO 25005KT 10SM CLR 30/M04 A3002 RMK AO1
KL18 
29nm W 
312015Z AUTO 21006KT 10SM CLR 29/06 A3001 RMK AO2
KSEE 
32nm SW 
311947Z 00000KT 10SM SKC 30/M03 A3000
KCRQ 
32nm W 
311953Z 27003KT 10SM CLR 22/10 A3001 RMK AO2 SLP158 T02220100
KHMT 
32nm NW 
312015Z AUTO 15010G16KT 10SM 31/M06 A3003 RMK AO2 T03111058
KTRM 
33nm NE 
311952Z AUTO 00000KT 10SM CLR 32/M03 A2999 RMK AO2 SLP158 T03221033
KPSP 
33nm N 
311953Z 11005KT 10SM CLR 33/M03 A3004 RMK AO2 SLP168 T03281028
KNFG 
33nm W 
302155Z 21009KT 10SM FEW100 27/05 A2991 RMK AO2 SLP127 T02720050 $
TAF
KCRQ 
32nm W 
311733Z 3118/0118 25007KT P6SM SCT200 FM010100 VRB04KT P6SM BKN200 TEMPO 0105/0109 1SM BR BKN001
KTRM 
33nm NE 
311733Z 3118/0118 VRB05KT P6SM SCT200
KPSP 
33nm N 
311733Z 3118/0118 VRB05KT P6SM SCT200 FM312000 12008KT P6SM SCT200 FM010600 33006KT P6SM BKN200
KNFG 
33nm W 
3115/0115 VRB05KT 9999 SKC QNH2996INS BECMG 3118/3120 21008KT 9999 SKC QNH2995INS BECMG 0102/0104 VRB05KT 9999 SKC QNH3002INS T27/3121Z
KNKX 
34nm SW 
3115/0115 VRB05KT 9999 SKC QNH2997INS BECMG 3118/3120 28008KT 9999 SKC QNH2995INS BECMG 0102/0104 VRB05KT 9999 SKC QNH3003INS T27/3121Z T13/0112Z COR 1505
NOTAMs
Click for the latest NOTAMs
NOTAMs are issued by the DoD/FAA and will open in a separate window not controlled by AirNav.

 

 
 

Would you like to see your business listed on this page?

 If your business provides an interesting product or service to pilots, flight crews, aircraft, or users of the Warner Springs Gliderport, you should consider listing it here.  To start the listing process, click on the button below
 
Add a business
 

Other Pages about Warner Springs Gliderport

www.agcsc.org/warner_springs_info.html
 
Update a link
 
Copyright © AirNav, LLC. All rights reserved. Privacy Policy  Contact